6N9 weather

Eagles Nest Airport
Potters Hill, North Carolina, United States

Public forecast

Using degrees Fahrenheit for public forecast. Weather courtesy of forecast.io.

Closest aviation weather report (METAR) to Eagles Nest Airport

Closest report is Albert J Ellis Airport, 10.1 nm (18.7 km) SSE. Retrieved 2019/12/12 12:56 UTC (20 minutes ago):

KOAJ 121256Z 04009KT 10SM CLR 01/M02 A3064

Closest aviation forecast (TAF) to Eagles Nest Airport

Closest forecast is Albert J Ellis Airport, 10.1 nm (18.7 km) SSE. Retrieved 2019/12/12 12:22 UTC (54 minutes ago):

TAF KOAJ 121120Z 1212/1312 03008G14KT P6SM SKC FM130700 03007KT P6SM BKN020 BKN060 AMD LTD TO CLD VIS AND WIND